Time;durP1;ratioP1;P1;durP2;ratioP2;P2;SDS_P1;SDS_P2;PMS_P1;PMS_P2;Temp;Humidity;BMP_temperature;BMP_pressure;BME280_temperature;BME280_humidity;BME280_pressure;Samples;Min_cycle;Max_cycle;Signal;HPM_P1;HPM_P2
2023/09/05 00:00:45;;;;;;;5.00;2.55;;;20.30;89.30;;;;;;5040800;28;20017;-91
2023/09/05 00:03:11;;;;;;;6.18;2.75;;;20.30;89.30;;;;;;5030813;28;20021;-90
2023/09/05 00:05:36;;;;;;;4.07;2.67;;;20.30;89.20;;;;;;5038828;28;20040;-90
2023/09/05 00:08:02;;;;;;;7.55;2.60;;;20.30;89.10;;;;;;5043466;28;20029;-90
2023/09/05 00:10:28;;;;;;;11.00;2.90;;;20.30;89.10;;;;;;5031918;28;20032;-89
2023/09/05 00:12:54;;;;;;;5.18;2.33;;;20.30;89.10;;;;;;5019450;28;20025;-91
2023/09/05 00:15:19;;;;;;;9.07;2.40;;;20.30;89.10;;;;;;5029014;28;20146;-91
2023/09/05 00:17:45;;;;;;;4.20;2.65;;;20.30;89.10;;;;;;5043669;28;20021;-90
2023/09/05 00:20:15;;;;;;;3.88;2.30;;;20.30;89.00;;;;;;5029507;28;20028;-91
2023/09/05 00:22:41;;;;;;;3.88;2.72;;;20.30;89.00;;;;;;5029396;28;20024;-92
2023/09/05 00:25:07;;;;;;;6.47;2.75;;;20.30;89.00;;;;;;5040541;28;20041;-92
2023/09/05 00:27:35;;;;;;;3.80;2.10;;;20.30;88.90;;;;;;5030412;28;20405;-91
2023/09/05 00:30:03;;;;;;;4.18;2.45;;;20.30;88.90;;;;;;5031333;28;20032;-89
2023/09/05 00:32:28;;;;;;;3.42;2.17;;;20.30;88.90;;;;;;5021347;28;20033;-89
2023/09/05 00:34:54;;;;;;;5.93;2.53;;;20.30;88.90;;;;;;5023373;28;20017;-91
2023/09/05 00:37:23;;;;;;;4.63;2.13;;;20.30;88.80;;;;;;5031105;28;20037;-90
2023/09/05 00:39:49;;;;;;;5.05;2.92;;;20.30;88.80;;;;;;5032889;28;20033;-91
2023/09/05 00:42:16;;;;;;;3.08;2.20;;;20.30;88.70;;;;;;5030807;28;20107;-89
2023/09/05 00:44:42;;;;;;;4.05;2.55;;;20.20;88.70;;;;;;5035051;28;20025;-89
2023/09/05 00:47:13;;;;;;;4.40;2.70;;;20.20;88.70;;;;;;5026209;28;20041;-89
2023/09/05 00:49:41;;;;;;;4.68;2.72;;;20.20;88.60;;;;;;5035749;28;20104;-90
2023/09/05 00:52:08;;;;;;;6.68;2.72;;;20.30;88.70;;;;;;5026629;28;20056;-90
2023/09/05 00:54:35;;;;;;;4.28;2.30;;;20.20;88.60;;;;;;5044638;28;20021;-90
2023/09/05 00:57:01;;;;;;;5.57;2.50;;;20.30;88.60;;;;;;5032835;28;20022;-90
2023/09/05 00:59:27;;;;;;;5.45;2.67;;;20.20;88.50;;;;;;5033663;28;20051;-89
2023/09/05 01:01:55;;;;;;;6.10;2.58;;;20.20;88.40;;;;;;5046503;28;20025;-91
2023/09/05 01:04:21;;;;;;;2.97;2.40;;;20.20;88.40;;;;;;5031834;28;20083;-91
2023/09/05 01:07:00;;;;;;;6.10;2.60;;;20.20;88.40;;;;;;5030410;28;20493;-90
2023/09/05 01:09:56;;;;;;;6.22;2.83;;;20.20;88.40;;;;;;5047949;28;20488;-91
2023/09/05 01:12:22;;;;;;;7.60;2.60;;;20.20;88.40;;;;;;5045620;28;20017;-90
2023/09/05 01:14:48;;;;;;;4.43;2.30;;;20.20;88.30;;;;;;5024247;28;20033;-90
2023/09/05 01:17:14;;;;;;;6.25;2.70;;;20.20;88.30;;;;;;5033489;28;20083;-90
2023/09/05 01:19:40;;;;;;;3.33;2.45;;;20.20;88.30;;;;;;5050471;28;20027;-89
2023/09/05 01:22:33;;;;;;;7.05;2.80;;;20.20;88.30;;;;;;5045678;28;20032;-90
2023/09/05 01:24:59;;;;;;;5.00;2.50;;;20.20;88.30;;;;;;5033931;28;20014;-90
2023/09/05 01:27:26;;;;;;;4.95;2.70;;;20.20;88.30;;;;;;5043790;28;20025;-91
2023/09/05 01:29:53;;;;;;;4.07;2.60;;;20.20;88.20;;;;;;5025167;28;20048;-91
2023/09/05 01:32:20;;;;;;;3.95;1.98;;;20.20;88.30;;;;;;5038334;28;20168;-89
2023/09/05 01:34:46;;;;;;;4.32;2.65;;;20.20;88.20;;;;;;5035915;28;20028;-89
2023/09/05 01:37:15;;;;;;;4.32;2.70;;;20.20;88.20;;;;;;5036622;28;20023;-90
2023/09/05 01:39:41;;;;;;;4.93;2.53;;;20.20;88.20;;;;;;5042223;28;20028;-90
2023/09/05 01:42:07;;;;;;;5.60;2.08;;;20.20;88.10;;;;;;5046210;28;20022;-91
2023/09/05 01:44:34;;;;;;;5.85;2.60;;;20.20;88.10;;;;;;5034457;28;20022;-90
2023/09/05 01:47:00;;;;;;;6.55;2.60;;;20.20;88.10;;;;;;5019983;28;20036;-91
2023/09/05 01:49:26;;;;;;;3.88;2.45;;;20.20;88.10;;;;;;5047240;28;20037;-90
2023/09/05 01:51:52;;;;;;;4.85;2.60;;;20.20;88.00;;;;;;5034362;28;20021;-91
2023/09/05 01:54:17;;;;;;;5.53;2.70;;;20.20;88.00;;;;;;5045921;28;20025;-90
2023/09/05 01:56:43;;;;;;;4.65;2.78;;;20.20;88.00;;;;;;5027915;28;20100;-91
2023/09/05 01:59:09;;;;;;;8.15;3.17;;;20.20;88.00;;;;;;5023482;28;20071;-90
2023/09/05 02:01:35;;;;;;;3.38;2.33;;;20.20;88.00;;;;;;5037395;28;20026;-92
2023/09/05 02:04:01;;;;;;;4.65;2.53;;;20.20;87.90;;;;;;5035555;28;20025;-91
2023/09/05 02:06:26;;;;;;;4.00;2.75;;;20.50;88.10;;;;;;5033484;28;20125;-90
2023/09/05 02:08:52;;;;;;;3.88;2.45;;;20.10;87.80;;;;;;5042190;28;20029;-91
2023/09/05 02:11:17;;;;;;;4.80;2.20;;;20.20;87.90;;;;;;5027749;28;20076;-92
2023/09/05 02:13:43;;;;;;;4.22;2.10;;;20.20;87.90;;;;;;5024670;28;20032;-91
2023/09/05 02:16:09;;;;;;;6.45;2.33;;;20.10;87.80;;;;;;5033314;28;20031;-90
2023/09/05 02:18:34;;;;;;;4.68;2.70;;;20.20;87.80;;;;;;5047200;28;20033;-91
2023/09/05 02:21:01;;;;;;;5.50;2.47;;;20.20;87.80;;;;;;5030676;28;20017;-91
2023/09/05 02:23:28;;;;;;;4.00;2.38;;;20.20;87.80;;;;;;5020737;28;20241;-90
2023/09/05 02:26:01;;;;;;;6.03;2.83;;;20.10;87.70;;;;;;5042447;28;20056;-91
2023/09/05 02:28:30;;;;;;;6.00;2.70;;;20.10;87.80;;;;;;5047625;28;20025;-90
2023/09/05 02:30:56;;;;;;;3.53;2.33;;;20.10;87.70;;;;;;5027618;28;20025;-89
2023/09/05 02:33:22;;;;;;;3.58;2.17;;;20.10;87.70;;;;;;5030909;28;20108;-89
2023/09/05 02:35:49;;;;;;;3.72;2.42;;;20.10;87.70;;;;;;5023059;28;20017;-90
2023/09/05 02:38:15;;;;;;;4.32;2.53;;;20.10;87.70;;;;;;5029233;28;20036;-91
2023/09/05 02:40:45;;;;;;;5.10;2.55;;;20.10;87.70;;;;;;5031634;28;20021;-90
2023/09/05 02:43:11;;;;;;;5.07;2.42;;;20.10;87.70;;;;;;5042567;28;20124;-91
2023/09/05 02:45:37;;;;;;;5.45;2.45;;;20.10;87.70;;;;;;5033711;28;20105;-92
2023/09/05 02:48:02;;;;;;;4.75;2.63;;;20.10;87.70;;;;;;5051017;28;20116;-91
2023/09/05 02:50:28;;;;;;;4.90;2.53;;;20.10;87.60;;;;;;5034140;28;20524;-91
2023/09/05 02:52:54;;;;;;;4.22;2.58;;;20.10;87.60;;;;;;5019925;28;20032;-90
2023/09/05 02:55:19;;;;;;;4.78;2.35;;;20.10;87.60;;;;;;5032338;28;20025;-91
2023/09/05 02:57:45;;;;;;;4.65;2.58;;;20.10;87.60;;;;;;5042302;28;20025;-90
2023/09/05 03:00:11;;;;;;;6.80;2.47;;;20.10;87.60;;;;;;5033340;28;20057;-88
2023/09/05 03:02:40;;;;;;;5.43;2.80;;;20.10;87.60;;;;;;5046917;28;20128;-90
2023/09/05 03:05:06;;;;;;;5.15;2.58;;;20.10;87.60;;;;;;5031584;28;20087;-91
2023/09/05 03:07:32;;;;;;;4.88;2.65;;;20.10;87.50;;;;;;5033351;28;20049;-90
2023/09/05 03:09:58;;;;;;;4.03;2.22;;;20.10;87.50;;;;;;5032252;28;20060;-89
2023/09/05 03:12:23;;;;;;;3.80;2.45;;;20.10;87.50;;;;;;5020930;28;20045;-90
2023/09/05 03:14:49;;;;;;;3.80;2.53;;;20.10;87.50;;;;;;5035202;28;20089;-91
2023/09/05 03:17:15;;;;;;;4.80;2.85;;;20.10;87.50;;;;;;5046696;28;20354;-89
2023/09/05 03:19:40;;;;;;;4.78;2.50;;;20.10;87.50;;;;;;5021802;28;20053;-89
2023/09/05 03:22:06;;;;;;;4.63;2.88;;;20.10;87.50;;;;;;5022475;28;20028;-91
2023/09/05 03:24:35;;;;;;;3.70;2.45;;;20.10;87.50;;;;;;5025269;28;20095;-89
2023/09/05 03:27:03;;;;;;;6.25;2.50;;;20.10;87.40;;;;;;5031506;28;20097;-89
2023/09/05 03:29:28;;;;;;;4.28;2.30;;;20.10;87.40;;;;;;5034984;28;20033;-91
2023/09/05 03:31:54;;;;;;;3.15;2.47;;;20.10;87.40;;;;;;5033311;28;20025;-88
2023/09/05 03:34:20;;;;;;;4.18;2.50;;;20.10;88.20;;;;;;5033676;28;20025;-90
2023/09/05 03:36:46;;;;;;;4.45;2.33;;;20.10;87.50;;;;;;5027418;28;20071;-90
2023/09/05 03:39:11;;;;;;;3.60;2.35;;;20.10;87.40;;;;;;5026440;28;20040;-90
2023/09/05 03:41:37;;;;;;;4.95;2.88;;;20.10;87.50;;;;;;5046099;28;20029;-89
2023/09/05 03:44:03;;;;;;;3.22;2.22;;;20.10;87.50;;;;;;5027812;28;20079;-90
2023/09/05 03:46:29;;;;;;;4.88;2.53;;;20.10;87.50;;;;;;5028768;28;20033;-90
2023/09/05 03:48:55;;;;;;;7.57;3.35;;;20.10;87.50;;;;;;5028042;28;20104;-92
2023/09/05 03:51:21;;;;;;;3.75;2.38;;;20.10;87.50;;;;;;5030791;28;20505;-89
2023/09/05 03:53:47;;;;;;;4.18;2.58;;;20.10;87.50;;;;;;5034765;28;20078;-92
2023/09/05 03:56:13;;;;;;;6.70;2.90;;;20.00;87.50;;;;;;5049447;28;20024;-90
2023/09/05 03:58:39;;;;;;;4.65;2.53;;;20.10;87.60;;;;;;5047143;28;20020;-90
2023/09/05 04:01:15;;;;;;;5.30;2.55;;;20.10;87.60;;;;;;5050025;28;20020;-90
2023/09/05 04:03:40;;;;;;;4.45;2.45;;;20.10;87.50;;;;;;5045553;28;20029;-90
2023/09/05 04:06:06;;;;;;;8.25;2.60;;;20.00;87.40;;;;;;5043275;28;20474;-89
2023/09/05 04:08:32;;;;;;;4.70;2.70;;;20.00;87.40;;;;;;5023905;28;20027;-89
2023/09/05 04:10:59;;;;;;;3.83;2.67;;;20.00;87.30;;;;;;5040890;28;20530;-90
2023/09/05 04:13:26;;;;;;;4.45;2.40;;;20.00;87.30;;;;;;5044365;28;20028;-91
2023/09/05 04:15:51;;;;;;;4.20;2.70;;;20.00;87.40;;;;;;5032983;28;20067;-88
2023/09/05 04:18:18;;;;;;;5.95;2.58;;;20.00;87.30;;;;;;5031399;28;20037;-88
2023/09/05 04:20:43;;;;;;;5.80;3.05;;;20.00;87.40;;;;;;5034318;28;20057;-89
2023/09/05 04:23:09;;;;;;;5.20;3.13;;;20.00;87.30;;;;;;5031414;28;20064;-89
2023/09/05 04:25:39;;;;;;;4.43;2.90;;;20.00;87.30;;;;;;5030678;28;20033;-89
2023/09/05 04:28:05;;;;;;;;;;;20.00;87.30;;;;;;5044578;28;20015;-88
2023/09/05 04:30:32;;;;;;;5.05;3.00;;;20.00;87.30;;;;;;5024051;28;19916;-90
2023/09/05 04:32:58;;;;;;;4.45;2.67;;;20.10;87.40;;;;;;5024573;28;20028;-89
2023/09/05 04:35:24;;;;;;;6.90;2.47;;;20.00;87.30;;;;;;5023927;28;20029;-91
2023/09/05 04:37:51;;;;;;;5.35;3.20;;;20.00;87.30;;;;;;5021927;28;20068;-89
2023/09/05 04:40:16;;;;;;;4.88;3.08;;;20.00;87.40;;;;;;5025730;28;20032;-90
2023/09/05 04:42:42;;;;;;;7.00;3.80;;;20.10;87.40;;;;;;5038501;28;20030;-88
2023/09/05 04:45:09;;;;;;;4.72;2.42;;;20.10;87.40;;;;;;5024417;28;20183;-90
2023/09/05 04:47:35;;;;;;;3.95;2.58;;;20.00;87.30;;;;;;5043079;28;20028;-90
2023/09/05 04:50:01;;;;;;;4.82;2.65;;;20.00;87.30;;;;;;5031135;28;20170;-89
2023/09/05 04:52:28;;;;;;;3.97;2.60;;;20.10;87.40;;;;;;5023604;28;20029;-89
2023/09/05 04:54:55;;;;;;;5.18;3.00;;;20.00;87.30;;;;;;5046918;28;20029;-84
2023/09/05 04:57:21;;;;;;;6.50;2.90;;;19.90;87.10;;;;;;5021091;28;20025;-86
2023/09/05 04:59:47;;;;;;;9.30;3.10;;;19.90;84.50;;;;;;5033711;28;20048;-89
2023/09/05 05:02:16;;;;;;;4.72;2.97;;;19.90;84.80;;;;;;5015425;28;20025;-89
2023/09/05 05:04:45;;;;;;;4.87;2.93;;;19.90;85.00;;;;;;5044678;28;20091;-87
2023/09/05 05:07:11;;;;;;;4.47;2.60;;;19.90;85.30;;;;;;5030119;28;20383;-88
2023/09/05 05:09:39;;;;;;;7.65;3.10;;;20.40;85.50;;;;;;5031889;28;20120;-87
2023/09/05 05:12:05;;;;;;;4.15;2.75;;;20.00;85.40;;;;;;5030576;28;20117;-89
2023/09/05 05:14:31;;;;;;;4.47;3.03;;;19.90;85.40;;;;;;5041504;28;20079;-88
2023/09/05 05:16:56;;;;;;;4.32;2.55;;;20.20;85.70;;;;;;5022593;28;20033;-88
2023/09/05 05:19:23;;;;;;;4.90;2.70;;;20.00;85.70;;;;;;5049735;28;20064;-88
2023/09/05 05:21:49;;;;;;;5.43;3.03;;;19.90;85.70;;;;;;5040994;28;20097;-89
2023/09/05 05:24:15;;;;;;;4.53;2.80;;;20.00;85.80;;;;;;5026821;28;20060;-90
2023/09/05 05:26:41;;;;;;;5.97;2.60;;;20.00;85.90;;;;;;5025981;28;20088;-89
2023/09/05 05:29:06;;;;;;;5.80;2.92;;;19.90;85.90;;;;;;5019908;28;20029;-90
2023/09/05 05:31:33;;;;;;;5.70;3.25;;;20.00;86.10;;;;;;5015331;28;20022;-90
2023/09/05 05:33:59;;;;;;;4.00;2.80;;;19.90;86.10;;;;;;5031940;28;20408;-89
2023/09/05 05:36:25;;;;;;;8.80;3.50;;;19.90;86.20;;;;;;5020272;28;20112;-89
2023/09/05 05:38:50;;;;;;;6.82;2.80;;;19.90;86.20;;;;;;5030119;28;20134;-89
2023/09/05 05:41:16;;;;;;;6.55;3.10;;;19.90;86.30;;;;;;5032661;28;20397;-88
2023/09/05 05:46:56;;;;;;;4.30;2.92;;;20.00;86.40;;;;;;5134631;23;20065;-88
2023/09/05 05:49:23;;;;;;;4.80;2.78;;;19.90;86.50;;;;;;5031281;28;20104;-89
2023/09/05 05:51:50;;;;;;;7.25;2.90;;;20.00;86.50;;;;;;5024850;28;20125;-89
2023/09/05 05:54:16;;;;;;;4.53;2.72;;;20.00;86.60;;;;;;5033050;28;20030;-89
2023/09/05 05:56:41;;;;;;;9.15;3.20;;;20.00;86.60;;;;;;5018676;28;20026;-89
2023/09/05 05:59:07;;;;;;;5.00;2.78;;;20.00;86.60;;;;;;5031791;28;20044;-87
2023/09/05 06:01:33;;;;;;;5.22;2.53;;;20.00;86.70;;;;;;5057808;28;20033;-89
2023/09/05 06:03:59;;;;;;;4.60;3.08;;;19.90;86.60;;;;;;5016235;28;20025;-88
2023/09/05 06:06:24;;;;;;;5.80;2.58;;;20.00;86.80;;;;;;5020796;28;20120;-89
2023/09/05 06:08:50;;;;;;;5.07;3.10;;;20.00;86.80;;;;;;5020378;28;20088;-89
2023/09/05 06:11:16;;;;;;;6.45;2.63;;;20.00;86.90;;;;;;5019836;28;20022;-90
2023/09/05 06:13:41;;;;;;;6.63;2.97;;;20.00;87.00;;;;;;5021452;28;20037;-89
2023/09/05 06:16:07;;;;;;;5.90;2.97;;;20.00;87.00;;;;;;5031983;28;20029;-90
2023/09/05 06:18:33;;;;;;;6.75;3.15;;;20.00;87.00;;;;;;5015725;28;20038;-91
2023/09/05 06:20:58;;;;;;;4.13;2.88;;;20.00;87.10;;;;;;5019874;28;20029;-89
2023/09/05 06:23:24;;;;;;;4.80;3.13;;;20.00;87.10;;;;;;5027645;28;20281;-90
2023/09/05 06:25:50;;;;;;;3.60;2.50;;;20.00;87.20;;;;;;5016511;28;20533;-89
2023/09/05 06:28:16;;;;;;;5.85;2.58;;;20.00;87.20;;;;;;5022871;28;20025;-90
2023/09/05 06:30:42;;;;;;;5.20;2.53;;;20.00;87.30;;;;;;5028492;28;20030;-91
2023/09/05 06:33:08;;;;;;;4.20;2.70;;;20.00;87.30;;;;;;5021595;28;20018;-89
2023/09/05 06:35:36;;;;;;;5.25;2.67;;;20.00;87.40;;;;;;5024312;28;20471;-90
2023/09/05 06:38:02;;;;;;;7.38;2.67;;;20.00;87.50;;;;;;5030117;28;20028;-89
2023/09/05 06:40:28;;;;;;;8.35;3.00;;;20.00;87.50;;;;;;5026369;28;20378;-90
2023/09/05 06:42:53;;;;;;;4.32;3.10;;;20.00;87.50;;;;;;5031196;28;20030;-89
2023/09/05 06:45:20;;;;;;;4.45;2.80;;;20.00;87.50;;;;;;5030284;28;20492;-90
2023/09/05 06:47:46;;;;;;;5.13;3.00;;;20.00;87.60;;;;;;5028442;28;20041;-91
2023/09/05 06:50:12;;;;;;;3.45;2.30;;;20.00;87.70;;;;;;5036717;28;20025;-91
2023/09/05 06:52:38;;;;;;;4.40;2.55;;;20.00;87.70;;;;;;5027976;28;20061;-92
2023/09/05 06:55:12;;;;;;;4.30;2.33;;;20.00;87.70;;;;;;5016163;28;20064;-92
2023/09/05 06:57:37;;;;;;;4.32;2.80;;;20.00;87.80;;;;;;5023415;28;20382;-92
2023/09/05 07:00:03;;;;;;;4.28;3.03;;;20.00;87.80;;;;;;5019327;28;20109;-93
2023/09/05 07:02:30;;;;;;;4.35;2.65;;;20.00;87.80;;;;;;5017842;28;20093;-94
2023/09/05 07:04:55;;;;;;;5.10;3.10;;;20.00;87.80;;;;;;5023242;28;20029;-92
2023/09/05 07:07:21;;;;;;;4.68;2.88;;;20.10;87.90;;;;;;5026886;28;20674;-90
2023/09/05 07:09:47;;;;;;;5.85;3.25;;;20.10;88.00;;;;;;5022716;28;20029;-92
2023/09/05 07:12:12;;;;;;;4.93;2.78;;;20.00;88.00;;;;;;5029609;28;20025;-91
2023/09/05 07:14:38;;;;;;;5.80;2.75;;;20.10;88.10;;;;;;5018397;28;20049;-91
2023/09/05 07:17:06;;;;;;;4.22;2.85;;;20.10;88.10;;;;;;5017146;28;20037;-92
2023/09/05 07:19:31;;;;;;;7.85;2.80;;;20.10;88.10;;;;;;5025661;28;20026;-91
2023/09/05 07:21:57;;;;;;;5.28;2.65;;;20.10;88.20;;;;;;5019971;28;20049;-91
2023/09/05 07:24:23;;;;;;;5.82;3.30;;;20.10;88.20;;;;;;5018454;28;20034;-90
2023/09/05 07:26:48;;;;;;;4.75;2.53;;;20.10;88.30;;;;;;5027925;28;20029;-88
2023/09/05 07:29:15;;;;;;;3.55;2.50;;;20.10;88.30;;;;;;5030298;28;20088;-90
2023/09/05 07:31:42;;;;;;;5.50;2.67;;;20.10;88.30;;;;;;5030688;28;20035;-91
2023/09/05 07:34:08;;;;;;;4.25;2.88;;;20.10;88.30;;;;;;5036222;28;20033;-91
2023/09/05 07:36:35;;;;;;;6.20;3.10;;;20.10;88.40;;;;;;5017847;28;20029;-91
2023/09/05 07:39:02;;;;;;;4.50;2.50;;;20.10;88.40;;;;;;5024288;28;20022;-89
2023/09/05 07:41:33;;;;;;;4.53;3.50;;;20.10;88.40;;;;;;5021727;28;20040;-90
2023/09/05 07:43:59;;;;;;;5.93;2.72;;;20.10;88.40;;;;;;5024892;28;20424;-90
2023/09/05 07:46:25;;;;;;;4.65;3.42;;;20.10;88.40;;;;;;5021809;28;20394;-90
2023/09/05 07:48:51;;;;;;;4.22;3.10;;;20.10;88.50;;;;;;5021982;28;20026;-88
2023/09/05 07:51:18;;;;;;;4.75;3.15;;;20.10;88.50;;;;;;5017366;28;20461;-91
2023/09/05 07:53:59;;;;;;;5.93;3.00;;;20.10;89.30;;;;;;5021726;28;20034;-90
2023/09/05 07:56:26;;;;;;;4.13;2.75;;;20.10;88.60;;;;;;5025514;28;20483;-91
2023/09/05 07:58:52;;;;;;;4.03;2.88;;;20.10;88.50;;;;;;5016418;28;20041;-92
2023/09/05 08:01:20;;;;;;;7.85;3.55;;;20.10;88.60;;;;;;5028561;28;20033;-89
2023/09/05 08:03:49;;;;;;;8.55;3.22;;;20.10;88.60;;;;;;5019403;28;20022;-89
2023/09/05 08:06:15;;;;;;;9.13;2.85;;;20.10;88.60;;;;;;5016886;28;20037;-90
2023/09/05 08:08:41;;;;;;;3.92;2.80;;;20.10;88.60;;;;;;5021645;28;20037;-89
2023/09/05 08:11:07;;;;;;;7.63;3.28;;;20.10;88.60;;;;;;5024752;28;20026;-89
2023/09/05 08:13:32;;;;;;;4.10;3.00;;;20.10;88.60;;;;;;5030351;28;20032;-93
2023/09/05 08:15:58;;;;;;;6.13;3.10;;;20.10;89.40;;;;;;5021365;28;20026;-89
2023/09/05 08:18:24;;;;;;;3.90;2.78;;;20.10;88.60;;;;;;5029946;28;20021;-90
2023/09/05 08:20:50;;;;;;;5.97;3.10;;;20.10;88.60;;;;;;5023677;28;20024;-90
2023/09/05 08:23:16;;;;;;;4.72;2.80;;;20.10;88.70;;;;;;5028650;28;20020;-90
2023/09/05 08:25:41;;;;;;;4.38;3.20;;;20.20;88.80;;;;;;5015657;28;20125;-90
2023/09/05 08:28:07;;;;;;;6.20;2.75;;;20.20;88.80;;;;;;5029664;28;20048;-89
2023/09/05 08:30:33;;;;;;;5.30;2.33;;;20.10;88.70;;;;;;5026314;28;20025;-92
2023/09/05 08:33:03;;;;;;;3.10;2.08;;;20.10;88.70;;;;;;5017830;28;20120;-92
2023/09/05 08:35:28;;;;;;;5.53;3.03;;;20.20;88.80;;;;;;5027456;28;20026;-83
2023/09/05 08:37:57;;;;;;;4.07;2.90;;;20.10;88.80;;;;;;5018654;28;20045;-81
2023/09/05 08:40:34;;;;;;;3.85;2.50;;;20.10;88.60;;;;;;5019625;28;20406;-81
2023/09/05 08:42:59;;;;;;;5.75;3.13;;;20.10;88.40;;;;;;5022137;28;20108;-83
2023/09/05 08:45:26;;;;;;;6.50;2.70;;;20.10;87.10;;;;;;5025211;28;20120;-82
2023/09/05 08:47:52;;;;;;;7.35;3.10;;;20.00;86.70;;;;;;5014337;28;20290;-82
2023/09/05 08:50:18;;;;;;;5.07;2.92;;;20.10;86.80;;;;;;5023773;28;20022;-83
2023/09/05 08:52:46;;;;;;;5.50;2.22;;;20.10;87.00;;;;;;5020270;28;20131;-81
2023/09/05 08:55:13;;;;;;;9.48;2.78;;;20.10;87.30;;;;;;5017660;28;20045;-81
2023/09/05 08:57:40;;;;;;;5.78;3.45;;;20.10;87.40;;;;;;5026837;28;20022;-82
2023/09/05 09:00:06;;;;;;;7.53;2.67;;;20.10;87.50;;;;;;5019219;28;20029;-82
2023/09/05 09:02:35;;;;;;;4.13;2.58;;;20.10;87.40;;;;;;5027620;28;20043;-82
2023/09/05 09:05:01;;;;;;;3.15;2.33;;;20.10;87.40;;;;;;5022302;28;20482;-82
2023/09/05 09:07:27;;;;;;;11.40;2.85;;;20.10;87.20;;;;;;5025242;28;20033;-81
2023/09/05 09:09:57;;;;;;;3.45;2.50;;;20.10;87.20;;;;;;5031415;28;20156;-82
2023/09/05 09:12:32;;;;;;;;;;;20.10;86.70;;;;;;5027448;28;20030;-81
2023/09/05 09:15:18;;;;;;;2.65;1.90;;;20.10;85.80;;;;;;5027034;28;19905;-81
2023/09/05 09:17:48;;;;;;;4.20;2.30;;;20.10;86.10;;;;;;5022177;28;20029;-82
2023/09/05 09:20:14;;;;;;;4.90;2.17;;;20.10;86.40;;;;;;5030037;28;20037;-82
2023/09/05 09:22:41;;;;;;;4.10;2.15;;;20.10;86.80;;;;;;5027332;28;20156;-82
2023/09/05 09:25:10;;;;;;;6.22;2.42;;;20.10;86.20;;;;;;5023340;28;20022;-82
2023/09/05 09:27:36;;;;;;;5.70;2.95;;;20.10;85.90;;;;;;5019448;28;20021;-82
2023/09/05 09:30:06;;;;;;;4.50;2.20;;;20.10;86.10;;;;;;5032302;28;20030;-82
2023/09/05 09:32:32;;;;;;;4.65;2.40;;;20.10;85.40;;;;;;5023831;28;20433;-83
2023/09/05 09:34:58;;;;;;;3.40;2.15;;;20.10;85.40;;;;;;5019429;28;20014;-82
2023/09/05 09:37:25;;;;;;;3.17;2.30;;;20.10;85.70;;;;;;5025416;28;20524;-81
2023/09/05 09:40:06;;;;;;;3.42;2.40;;;20.20;86.10;;;;;;5028354;28;20469;-83
2023/09/05 09:42:33;;;;;;;3.50;2.33;;;20.20;85.80;;;;;;5022192;28;20039;-82
2023/09/05 09:44:59;;;;;;;3.80;1.80;;;20.20;85.20;;;;;;5024243;28;20458;-80
2023/09/05 09:47:30;;;;;;;4.13;2.45;;;20.20;85.70;;;;;;5025604;28;20034;-82
2023/09/05 09:49:58;;;;;;;6.63;2.40;;;20.20;85.70;;;;;;5022219;28;20031;-81
2023/09/05 09:52:26;;;;;;;3.95;2.28;;;20.20;85.50;;;;;;5027221;28;20045;-82
2023/09/05 09:54:56;;;;;;;3.70;2.10;;;20.20;85.30;;;;;;5026323;28;20069;-82
2023/09/05 09:57:28;;;;;;;4.30;1.80;;;20.20;85.30;;;;;;5022178;28;20014;-82
2023/09/05 10:00:03;;;;;;;10.05;2.28;;;20.20;85.70;;;;;;5025753;28;20060;-82
2023/09/05 10:02:29;;;;;;;5.97;2.40;;;20.20;85.20;;;;;;5030377;28;20428;-81
2023/09/05 10:04:57;;;;;;;3.80;2.22;;;20.30;84.40;;;;;;5019324;28;20191;-82
2023/09/05 10:07:26;;;;;;;5.70;2.38;;;20.30;85.00;;;;;;5028902;28;20060;-81
2023/09/05 10:09:52;;;;;;;7.10;2.25;;;20.30;85.10;;;;;;5025183;28;20018;-81
2023/09/05 10:12:20;;;;;;;9.13;2.30;;;20.30;84.40;;;;;;5030540;28;20028;-81
2023/09/05 10:14:47;;;;;;;2.33;2.00;;;20.30;85.10;;;;;;5034092;28;20032;-82
2023/09/05 10:17:15;;;;;;;3.58;2.20;;;20.30;84.80;;;;;;5028697;28;20057;-82
2023/09/05 10:19:42;;;;;;;4.32;2.22;;;20.30;85.00;;;;;;5029083;28;20022;-82
2023/09/05 10:22:10;;;;;;;4.65;2.13;;;20.30;85.00;;;;;;5028111;28;20063;-83
2023/09/05 10:24:37;;;;;;;3.28;1.73;;;20.40;85.10;;;;;;5026248;28;20482;-82
2023/09/05 10:27:03;;;;;;;3.28;2.08;;;20.40;84.80;;;;;;5017293;28;20025;-81
2023/09/05 10:29:44;;;;;;;3.30;1.67;;;20.40;85.00;;;;;;5029139;28;20115;-80
2023/09/05 10:32:14;;;;;;;2.45;1.75;;;20.40;85.40;;;;;;5020427;28;20026;-81
2023/09/05 10:34:45;;;;;;;2.78;1.95;;;20.40;85.50;;;;;;5029899;28;20017;-81
2023/09/05 10:37:17;;;;;;;2.35;1.95;;;20.40;85.60;;;;;;5033146;28;20072;-81
2023/09/05 10:39:50;;;;;;;1.75;1.65;;;20.40;85.50;;;;;;5016901;28;20519;-81
2023/09/05 10:42:16;;;;;;;2.75;1.60;;;20.40;85.60;;;;;;5023655;28;20079;-81
2023/09/05 10:44:44;;;;;;;4.88;2.55;;;20.40;85.30;;;;;;5024958;28;20021;-80
2023/09/05 10:47:30;;;;;;;2.90;2.05;;;20.50;85.10;;;;;;5018138;28;20026;-81
2023/09/05 10:50:00;;;;;;;9.15;2.42;;;20.50;85.10;;;;;;5029351;28;20022;-82
2023/09/05 10:52:29;;;;;;;5.25;2.30;;;20.50;85.30;;;;;;5030486;28;20080;-81
2023/09/05 10:54:56;;;;;;;2.25;1.73;;;20.50;84.00;;;;;;5026166;28;20034;-81
2023/09/05 10:57:37;;;;;;;2.75;1.85;;;20.50;84.40;;;;;;5031716;28;20346;-81
2023/09/05 11:00:15;;;;;;;3.03;1.80;;;20.50;84.80;;;;;;5028388;28;20022;-80
2023/09/05 11:02:42;;;;;;;3.20;2.22;;;20.50;84.20;;;;;;5020452;28;20033;-81
2023/09/05 11:05:20;;;;;;;3.53;1.85;;;20.50;85.40;;;;;;5028783;28;20022;-80
2023/09/05 11:07:50;;;;;;;5.10;1.80;;;20.50;84.60;;;;;;5018124;28;20036;-81
2023/09/05 11:10:38;;;;;;;4.57;1.90;;;20.50;85.00;;;;;;5026115;28;20021;-81
2023/09/05 11:13:09;;;;;;;4.18;2.30;;;20.60;84.60;;;;;;5032511;28;20034;-81
2023/09/05 11:15:37;;;;;;;2.50;2.03;;;20.50;84.90;;;;;;5021114;28;20548;-81
2023/09/05 11:18:17;;;;;;;2.03;1.73;;;20.60;85.10;;;;;;5028880;28;20025;-80
2023/09/05 11:20:57;;;;;;;4.13;1.98;;;20.60;84.90;;;;;;5025435;28;20025;-80
2023/09/05 11:23:52;;;;;;;10.07;2.87;;;20.60;84.70;;;;;;5017751;28;20091;-81
2023/09/05 11:26:25;;;;;;;4.25;1.85;;;20.60;85.10;;;;;;5031946;28;20040;-81
2023/09/05 11:29:10;;;;;;;2.05;1.80;;;20.60;84.10;;;;;;5023297;28;20078;-81
2023/09/05 11:32:00;;;;;;;2.80;1.95;;;20.60;84.50;;;;;;5020865;28;20030;-81
2023/09/05 11:34:33;;;;;;;3.60;1.75;;;20.60;84.80;;;;;;5028485;28;20026;-80
2023/09/05 11:40:54;;;;;;;2.00;1.50;;;20.70;84.30;;;;;;4967793;28;20035;-81
2023/09/05 11:43:57;;;;;;;1.90;1.35;;;20.70;84.90;;;;;;4910627;29;20071;-80
2023/09/05 11:46:41;;;;;;;4.70;2.00;;;20.70;85.10;;;;;;4910210;29;20040;-81
2023/09/05 11:49:07;;;;;;;3.75;1.92;;;20.70;85.10;;;;;;4910383;29;20036;-80
2023/09/05 11:51:32;;;;;;;5.60;1.88;;;20.70;84.70;;;;;;4908407;29;20040;-81
2023/09/05 11:53:58;;;;;;;3.05;1.90;;;20.70;84.50;;;;;;4899770;29;20066;-80
2023/09/05 11:56:25;;;;;;;2.53;1.70;;;20.80;84.60;;;;;;5084185;23;20489;-81
2023/09/05 11:58:50;;;;;;;8.10;1.80;;;20.80;85.10;;;;;;5044896;28;20492;-81
2023/09/05 12:01:27;;;;;;;2.67;1.67;;;20.80;84.80;;;;;;5043766;28;20040;-81
2023/09/05 12:04:03;;;;;;;4.70;1.90;;;20.80;84.40;;;;;;5045248;28;20082;-80
2023/09/05 12:06:34;;;;;;;2.90;1.70;;;20.80;84.80;;;;;;5027887;28;20069;-80
2023/09/05 12:09:00;;;;;;;1.92;1.58;;;20.90;84.10;;;;;;5042988;28;20570;-80
2023/09/05 12:11:26;;;;;;;1.48;1.35;;;20.90;84.00;;;;;;5031755;28;20137;-81
2023/09/05 12:13:56;;;;;;;5.72;2.00;;;20.90;84.00;;;;;;5046544;28;20695;-81
2023/09/05 12:16:22;;;;;;;4.30;1.63;;;20.90;84.20;;;;;;5047944;28;20028;-81
2023/09/05 12:18:48;;;;;;;1.90;1.70;;;20.90;84.60;;;;;;5047513;28;20321;-80
2023/09/05 12:21:14;;;;;;;2.45;1.73;;;20.90;84.90;;;;;;5048316;28;20457;-81
2023/09/05 12:23:40;;;;;;;6.60;1.85;;;20.90;85.10;;;;;;5048092;28;20060;-80
2023/09/05 12:26:06;;;;;;;2.70;1.67;;;20.90;85.20;;;;;;5047870;28;20414;-80
2023/09/05 12:28:32;;;;;;;3.15;1.65;;;20.90;85.20;;;;;;5047262;28;20017;-81
2023/09/05 12:31:14;;;;;;;4.03;1.60;;;21.00;85.30;;;;;;5048472;28;20021;-82
2023/09/05 12:33:40;;;;;;;2.08;1.52;;;21.00;85.50;;;;;;5048033;28;20063;-81
2023/09/05 12:36:06;;;;;;;7.45;1.80;;;21.00;85.50;;;;;;5046990;28;20036;-81
2023/09/05 12:38:32;;;;;;;3.67;1.88;;;21.00;85.40;;;;;;5048166;28;20033;-81
2023/09/05 12:40:57;;;;;;;2.97;1.80;;;21.00;85.10;;;;;;5047197;28;20029;-81
2023/09/05 12:43:24;;;;;;;3.50;1.98;;;21.00;85.30;;;;;;5025661;28;20476;-82
2023/09/05 12:45:50;;;;;;;2.10;1.50;;;21.00;85.30;;;;;;5045271;28;20489;-80
2023/09/05 12:48:16;;;;;;;2.20;1.60;;;21.10;84.90;;;;;;5048513;28;20056;-80
2023/09/05 12:50:44;;;;;;;2.78;1.70;;;21.00;85.20;;;;;;5047956;28;20055;-81
2023/09/05 12:53:10;;;;;;;2.40;1.60;;;21.00;85.10;;;;;;5047506;28;20598;-82
2023/09/05 12:55:37;;;;;;;5.05;2.00;;;21.10;85.40;;;;;;5051247;28;20028;-81
2023/09/05 12:58:06;;;;;;;2.85;1.73;;;21.00;85.50;;;;;;5051195;28;20093;-81